Time;durP1;ratioP1;P1;durP2;ratioP2;P2;SDS_P1;SDS_P2;PMS_P1;PMS_P2;Temp;Humidity;BMP_temperature;BMP_pressure;BME280_temperature;BME280_humidity;BME280_pressure;Samples;Min_cycle;Max_cycle;Signal;HPM_P1;HPM_P2
2024/01/02 00:00:39;;;;;;;14.48;4.47;;;5.40;99.90;;;;;;4980693;28;20401;-69
2024/01/02 00:03:05;;;;;;;13.52;4.55;;;5.50;99.90;;;;;;5001813;28;20042;-69
2024/01/02 00:05:30;;;;;;;13.07;4.25;;;5.50;99.90;;;;;;4990385;28;20061;-69
2024/01/02 00:07:56;;;;;;;13.10;4.22;;;5.50;99.90;;;;;;4984126;28;20389;-69
2024/01/02 00:10:23;;;;;;;13.27;4.20;;;5.50;99.90;;;;;;4996531;28;20050;-69
2024/01/02 00:12:48;;;;;;;13.07;4.70;;;5.50;99.90;;;;;;4996787;28;20030;-69
2024/01/02 00:15:14;;;;;;;12.02;3.85;;;5.50;99.90;;;;;;5023411;28;20107;-69
2024/01/02 00:17:40;;;;;;;14.55;4.03;;;5.50;99.90;;;;;;5016647;28;20045;-69
2024/01/02 00:20:07;;;;;;;12.35;4.40;;;5.50;99.90;;;;;;4978818;28;20516;-69
2024/01/02 00:22:32;;;;;;;12.55;4.25;;;5.50;99.90;;;;;;4984032;28;20038;-69
2024/01/02 00:24:58;;;;;;;13.60;4.57;;;5.50;99.90;;;;;;5029915;28;20061;-69
2024/01/02 00:27:24;;;;;;;13.57;4.07;;;5.60;99.90;;;;;;5005867;28;20413;-69
2024/01/02 00:29:50;;;;;;;13.20;3.70;;;5.60;99.90;;;;;;4982946;28;20045;-69
2024/01/02 00:32:16;;;;;;;13.40;3.88;;;5.60;99.90;;;;;;4982907;28;20057;-69
2024/01/02 00:34:41;;;;;;;9.73;3.67;;;5.60;99.90;;;;;;5001559;28;20100;-69
2024/01/02 00:37:07;;;;;;;14.02;3.67;;;5.60;99.90;;;;;;4983581;28;20488;-69
2024/01/02 00:39:33;;;;;;;9.85;3.63;;;5.70;99.90;;;;;;5000202;28;20042;-69
2024/01/02 00:41:59;;;;;;;14.27;3.85;;;5.60;99.90;;;;;;5000802;28;20137;-69
2024/01/02 00:44:24;;;;;;;11.23;3.50;;;5.70;99.90;;;;;;4991646;28;20050;-69
2024/01/02 00:46:50;;;;;;;10.57;3.20;;;5.70;99.90;;;;;;4997573;28;20460;-69
2024/01/02 00:49:16;;;;;;;9.93;3.40;;;5.70;99.90;;;;;;4988592;28;20046;-69
2024/01/02 00:51:42;;;;;;;11.40;3.30;;;5.80;99.90;;;;;;4992436;28;20115;-69
2024/01/02 00:54:07;;;;;;;8.52;3.10;;;5.80;99.90;;;;;;4995925;28;20591;-69
2024/01/02 00:56:33;;;;;;;8.15;3.10;;;5.80;99.90;;;;;;4996091;28;20046;-69
2024/01/02 00:58:59;;;;;;;10.20;3.13;;;5.80;99.90;;;;;;4985792;28;20049;-69
2024/01/02 01:01:25;;;;;;;8.45;3.10;;;5.90;99.90;;;;;;4996974;28;20751;-69
2024/01/02 01:03:51;;;;;;;9.70;3.10;;;5.80;99.90;;;;;;4991726;28;20096;-69
2024/01/02 01:06:16;;;;;;;8.85;2.78;;;5.80;99.90;;;;;;4980437;28;20638;-69
2024/01/02 01:08:42;;;;;;;11.40;2.88;;;5.80;99.90;;;;;;5009842;28;20453;-69
2024/01/02 01:11:08;;;;;;;9.73;2.53;;;5.80;99.90;;;;;;4987272;28;20052;-69
2024/01/02 01:13:34;;;;;;;7.65;2.80;;;5.80;99.90;;;;;;4996047;28;20477;-69
2024/01/02 01:15:59;;;;;;;11.82;3.05;;;5.80;99.90;;;;;;5011839;28;20037;-69
2024/01/02 01:18:25;;;;;;;7.60;2.63;;;5.80;99.90;;;;;;4981241;28;20100;-69
2024/01/02 01:20:51;;;;;;;10.93;3.20;;;5.80;99.90;;;;;;4984074;28;20042;-69
2024/01/02 01:23:17;;;;;;;9.77;2.50;;;5.80;99.90;;;;;;4985653;28;20041;-69
2024/01/02 01:25:42;;;;;;;11.63;3.03;;;5.80;99.90;;;;;;4998477;28;20041;-69
2024/01/02 01:28:08;;;;;;;8.27;2.47;;;5.90;99.90;;;;;;5003947;28;20040;-69
2024/01/02 01:30:34;;;;;;;8.77;2.90;;;5.90;99.90;;;;;;4994486;28;20421;-69
2024/01/02 01:33:00;;;;;;;9.73;2.22;;;5.90;99.90;;;;;;4995081;28;20401;-69
2024/01/02 01:35:25;;;;;;;8.23;2.53;;;5.90;99.90;;;;;;4994548;28;20436;-69
2024/01/02 01:37:51;;;;;;;11.65;2.83;;;5.90;99.90;;;;;;4981834;28;20237;-69
2024/01/02 01:40:17;;;;;;;7.95;2.35;;;5.90;99.90;;;;;;4996177;28;20045;-69
2024/01/02 01:42:43;;;;;;;9.15;2.70;;;5.90;99.90;;;;;;4985091;28;20040;-69
2024/01/02 01:45:08;;;;;;;12.32;2.60;;;5.90;99.90;;;;;;5001294;28;20394;-69
2024/01/02 01:47:34;;;;;;;8.07;2.83;;;6.00;99.90;;;;;;4994756;28;20212;-69
2024/01/02 01:50:00;;;;;;;15.10;3.05;;;5.90;99.90;;;;;;4995566;28;20329;-69
2024/01/02 01:52:32;;;;;;;12.57;3.10;;;6.00;99.90;;;;;;4995037;28;20064;-69
2024/01/02 01:54:58;;;;;;;11.25;2.78;;;6.00;99.90;;;;;;4996148;28;20038;-69
2024/01/02 01:57:24;;;;;;;11.60;3.72;;;6.00;99.90;;;;;;4988575;28;20143;-69
2024/01/02 01:59:52;;;;;;;11.55;2.70;;;6.10;99.90;;;;;;4996134;28;20089;-69
2024/01/02 02:02:18;;;;;;;13.38;3.08;;;6.10;99.90;;;;;;5022846;28;20042;-69
2024/01/02 02:04:45;;;;;;;7.00;2.45;;;6.10;99.90;;;;;;4996873;28;20081;-69
2024/01/02 02:07:11;;;;;;;12.73;3.33;;;6.00;99.90;;;;;;4984995;28;20407;-69
2024/01/02 02:09:37;;;;;;;12.23;3.30;;;6.10;99.90;;;;;;4983678;28;20065;-69
2024/01/02 02:12:04;;;;;;;11.05;3.30;;;6.10;99.90;;;;;;4991429;28;20405;-69
2024/01/02 02:14:29;;;;;;;10.68;3.15;;;6.10;99.90;;;;;;4983583;28;20046;-69
2024/01/02 02:16:55;;;;;;;8.27;3.50;;;6.10;99.90;;;;;;4992369;28;20046;-69
2024/01/02 02:19:21;;;;;;;19.77;4.05;;;6.10;99.90;;;;;;5028196;28;20405;-69
2024/01/02 02:21:47;;;;;;;11.88;3.50;;;6.10;99.90;;;;;;4996531;28;20084;-69
2024/01/02 02:24:13;;;;;;;14.43;4.40;;;6.10;99.90;;;;;;4983251;28;20231;-69
2024/01/02 02:26:39;;;;;;;11.10;4.90;;;6.10;99.90;;;;;;4987044;28;20236;-69
2024/01/02 02:29:04;;;;;;;12.02;5.28;;;6.20;99.90;;;;;;5005174;28;20041;-69
2024/01/02 02:31:30;;;;;;;11.70;5.32;;;6.20;99.90;;;;;;5029284;28;20092;-69
2024/01/02 02:33:56;;;;;;;11.13;5.00;;;6.20;99.90;;;;;;4996962;28;20095;-69
2024/01/02 02:36:22;;;;;;;17.20;6.20;;;6.20;99.90;;;;;;4996901;28;20365;-69
2024/01/02 02:38:48;;;;;;;14.90;6.20;;;6.20;99.90;;;;;;5002041;28;20136;-69
2024/01/02 02:41:13;;;;;;;17.77;6.63;;;6.20;99.90;;;;;;5005916;28;20045;-69
2024/01/02 02:43:39;;;;;;;15.88;6.57;;;6.20;99.90;;;;;;4984600;28;20104;-69
2024/01/02 02:46:05;;;;;;;16.35;6.20;;;6.20;99.90;;;;;;4987595;28;20190;-69
2024/01/02 02:48:31;;;;;;;13.65;6.07;;;6.20;99.90;;;;;;5023542;28;20433;-69
2024/01/02 02:50:56;;;;;;;11.15;6.28;;;6.20;99.90;;;;;;4986673;28;20046;-69
2024/01/02 02:53:22;;;;;;;9.80;6.65;;;6.20;99.90;;;;;;5004284;28;20045;-69
2024/01/02 02:55:48;;;;;;;20.30;7.10;;;6.20;99.90;;;;;;4995984;28;20063;-69
2024/01/02 02:58:14;;;;;;;14.65;6.45;;;6.30;99.90;;;;;;5001096;28;20241;-69
2024/01/02 03:00:40;;;;;;;16.20;6.28;;;6.30;99.90;;;;;;4981555;28;20513;-69
2024/01/02 03:03:06;;;;;;;14.27;6.72;;;6.20;99.90;;;;;;4984472;28;20076;-69
2024/01/02 03:05:32;;;;;;;14.50;7.40;;;6.30;99.90;;;;;;4984461;28;20435;-69
2024/01/02 03:07:58;;;;;;;14.50;6.68;;;6.20;99.90;;;;;;5004103;28;20037;-69
2024/01/02 03:10:24;;;;;;;13.90;6.57;;;6.20;99.90;;;;;;4999302;28;20564;-69
2024/01/02 03:12:50;;;;;;;17.20;6.72;;;6.20;99.90;;;;;;5001222;28;20037;-69
2024/01/02 03:15:17;;;;;;;13.75;6.65;;;6.30;99.90;;;;;;4993775;28;20050;-69
2024/01/02 03:17:42;;;;;;;12.25;6.25;;;6.30;99.90;;;;;;4996464;28;20137;-69
2024/01/02 03:20:08;;;;;;;16.48;6.82;;;6.30;99.90;;;;;;4980882;28;20503;-69
2024/01/02 03:22:34;;;;;;;11.70;6.07;;;6.20;99.90;;;;;;4998620;28;20119;-69
2024/01/02 03:25:00;;;;;;;11.20;6.03;;;6.20;99.90;;;;;;4984861;28;20042;-69
2024/01/02 03:27:26;;;;;;;14.20;5.88;;;6.30;99.90;;;;;;5027450;28;20405;-69
2024/01/02 03:29:51;;;;;;;13.20;6.25;;;6.30;99.90;;;;;;4997560;28;20052;-69
2024/01/02 03:32:17;;;;;;;11.05;5.47;;;6.30;99.90;;;;;;5011067;28;20085;-69
2024/01/02 03:34:43;;;;;;;11.05;5.13;;;6.30;99.90;;;;;;5001289;28;20057;-69
2024/01/02 03:37:09;;;;;;;11.38;5.60;;;6.30;99.90;;;;;;4984688;28;20061;-69
2024/01/02 03:39:34;;;;;;;12.07;5.28;;;6.20;99.90;;;;;;4981865;28;20045;-69
2024/01/02 03:42:00;;;;;;;13.68;5.45;;;6.30;99.90;;;;;;4999430;28;20136;-69
2024/01/02 03:44:26;;;;;;;10.57;4.97;;;6.30;99.90;;;;;;4996455;28;20288;-69
2024/01/02 03:46:51;;;;;;;10.32;4.43;;;6.20;99.90;;;;;;4999139;28;20085;-69
2024/01/02 03:49:17;;;;;;;8.82;4.88;;;6.30;99.90;;;;;;4996899;28;20049;-69
2024/01/02 03:51:43;;;;;;;9.50;4.50;;;6.30;99.90;;;;;;4987978;28;20466;-69
2024/01/02 03:54:10;;;;;;;14.90;5.50;;;6.30;99.90;;;;;;4994898;28;20053;-69
2024/01/02 03:56:36;;;;;;;9.43;4.75;;;6.30;99.90;;;;;;4983860;28;20045;-69
2024/01/02 03:59:02;;;;;;;10.32;4.88;;;6.30;99.90;;;;;;4993806;28;20034;-69
2024/01/02 04:01:28;;;;;;;11.27;4.65;;;6.30;99.90;;;;;;4995975;28;20501;-69
2024/01/02 04:03:53;;;;;;;10.73;4.82;;;6.30;99.90;;;;;;5001481;28;20042;-69
2024/01/02 04:06:19;;;;;;;10.02;4.30;;;6.30;99.90;;;;;;4998264;28;20089;-69
2024/01/02 04:08:45;;;;;;;13.13;5.50;;;6.30;99.90;;;;;;4979491;28;20050;-69
2024/01/02 04:11:13;;;;;;;14.40;5.15;;;6.30;99.90;;;;;;5017656;28;20045;-69
2024/01/02 04:13:39;;;;;;;12.43;5.10;;;6.30;99.90;;;;;;5013490;28;20497;-69
2024/01/02 04:16:05;;;;;;;10.65;4.22;;;6.30;99.90;;;;;;4986532;28;20125;-69
2024/01/02 04:18:31;;;;;;;12.90;4.50;;;6.30;99.90;;;;;;5032169;28;20062;-69
2024/01/02 04:20:57;;;;;;;8.32;4.75;;;6.30;99.90;;;;;;4985922;28;20363;-69
2024/01/02 04:23:22;;;;;;;8.20;4.53;;;6.30;99.90;;;;;;5031920;28;20034;-69
2024/01/02 04:25:48;;;;;;;8.80;4.53;;;6.30;99.90;;;;;;4996107;28;20043;-69
2024/01/02 04:28:14;;;;;;;10.85;4.50;;;6.30;99.90;;;;;;4997138;28;20126;-69
2024/01/02 04:30:40;;;;;;;8.82;4.80;;;6.30;99.90;;;;;;5001742;28;20148;-69
2024/01/02 04:33:06;;;;;;;10.25;4.10;;;6.30;99.90;;;;;;4986948;28;20038;-69
2024/01/02 04:35:32;;;;;;;8.73;3.75;;;6.30;99.90;;;;;;5009534;28;20720;-69
2024/01/02 04:37:58;;;;;;;8.38;4.00;;;6.30;99.90;;;;;;5036838;28;20046;-69
2024/01/02 04:40:23;;;;;;;10.43;3.85;;;6.40;99.90;;;;;;5018207;28;20037;-69
2024/01/02 04:42:49;;;;;;;10.25;3.70;;;6.30;99.90;;;;;;5005729;28;20105;-69
2024/01/02 04:45:15;;;;;;;6.50;3.95;;;6.40;99.90;;;;;;4988329;28;20075;-69
2024/01/02 04:47:41;;;;;;;6.72;3.15;;;6.40;99.90;;;;;;4992581;28;20104;-69
2024/01/02 04:50:07;;;;;;;7.38;3.47;;;6.40;99.90;;;;;;5007885;28;20034;-69
2024/01/02 04:52:33;;;;;;;9.57;2.95;;;6.30;99.90;;;;;;5029580;28;20713;-69
2024/01/02 04:55:01;;;;;;;8.60;3.08;;;6.40;99.90;;;;;;4996321;28;20096;-69
2024/01/02 04:57:27;;;;;;;5.70;2.58;;;6.30;99.90;;;;;;4988338;28;20053;-69
2024/01/02 04:59:53;;;;;;;7.90;2.97;;;6.40;99.90;;;;;;4997200;28;20038;-69
2024/01/02 05:02:23;;;;;;;7.70;2.70;;;6.40;99.90;;;;;;4995989;28;20515;-69
2024/01/02 05:04:50;;;;;;;6.43;2.97;;;6.40;99.90;;;;;;4994735;28;20049;-69
2024/01/02 05:07:16;;;;;;;6.53;2.60;;;6.40;99.90;;;;;;4999993;28;20148;-69
2024/01/02 05:09:41;;;;;;;4.90;2.70;;;6.30;99.90;;;;;;4984256;28;20157;-69
2024/01/02 05:12:07;;;;;;;10.50;2.97;;;6.40;99.90;;;;;;4993610;28;20052;-69
2024/01/02 05:14:33;;;;;;;8.98;2.70;;;6.40;99.90;;;;;;5021180;28;20042;-69
2024/01/02 05:16:59;;;;;;;7.20;3.10;;;6.40;99.90;;;;;;4996942;28;20054;-69
2024/01/02 05:19:24;;;;;;;8.98;2.60;;;6.30;99.90;;;;;;5024686;28;20049;-69
2024/01/02 05:21:53;;;;;;;9.55;3.58;;;6.30;99.90;;;;;;5028169;28;20049;-69
2024/01/02 05:24:18;;;;;;;6.63;2.92;;;6.30;99.90;;;;;;4985084;28;20054;-69
2024/01/02 05:26:44;;;;;;;7.13;2.95;;;6.30;99.90;;;;;;5011448;28;20042;-69
2024/01/02 05:29:10;;;;;;;5.45;2.45;;;6.30;99.90;;;;;;4988532;28;20050;-69
2024/01/02 05:31:36;;;;;;;5.05;3.10;;;6.40;99.90;;;;;;5000007;28;20042;-69
2024/01/02 05:34:01;;;;;;;7.70;2.50;;;6.30;99.90;;;;;;4985971;28;20103;-69
2024/01/02 05:36:27;;;;;;;10.20;2.58;;;6.30;99.90;;;;;;4996296;28;20080;-69
2024/01/02 05:38:53;;;;;;;6.55;2.50;;;6.40;99.90;;;;;;4979769;28;20649;-69
2024/01/02 05:41:19;;;;;;;6.57;2.63;;;6.40;99.90;;;;;;4994258;28;20078;-69
2024/01/02 05:43:44;;;;;;;4.40;2.55;;;6.40;99.90;;;;;;4985734;28;20492;-69
2024/01/02 05:46:10;;;;;;;4.15;2.50;;;6.30;99.90;;;;;;5001033;28;20050;-69
2024/01/02 05:48:36;;;;;;;4.55;2.15;;;6.40;99.90;;;;;;5004510;28;20120;-69
2024/01/02 05:51:04;;;;;;;2.97;1.75;;;6.40;99.90;;;;;;4998339;28;20300;-69
2024/01/02 05:53:30;;;;;;;4.22;2.22;;;6.40;99.90;;;;;;5016500;28;20265;-69
2024/01/02 05:55:55;;;;;;;3.53;2.10;;;6.40;99.90;;;;;;5021097;28;20103;-69
2024/01/02 05:58:21;;;;;;;4.30;1.90;;;6.40;99.90;;;;;;5002110;28;20030;-69
2024/01/02 06:00:47;;;;;;;5.55;2.20;;;6.40;99.90;;;;;;5000033;28;20034;-69
2024/01/02 06:03:13;;;;;;;3.60;1.77;;;6.30;99.90;;;;;;5000962;28;20050;-69
2024/01/02 06:05:38;;;;;;;4.95;2.05;;;6.40;99.90;;;;;;4984239;28;20052;-69
2024/01/02 06:08:04;;;;;;;5.05;2.08;;;6.40;99.90;;;;;;4986375;28;20458;-69
2024/01/02 06:10:30;;;;;;;4.50;1.88;;;6.40;99.90;;;;;;4983780;28;20129;-69
2024/01/02 06:12:56;;;;;;;3.65;1.90;;;6.40;99.90;;;;;;4999600;28;20148;-69
2024/01/02 06:15:21;;;;;;;3.20;1.80;;;6.40;99.90;;;;;;4997627;28;20050;-69
2024/01/02 06:17:47;;;;;;;2.78;1.63;;;6.40;99.90;;;;;;5001734;28;20041;-69
2024/01/02 06:20:13;;;;;;;2.10;1.88;;;6.40;99.90;;;;;;4984742;28;20072;-69
2024/01/02 06:22:39;;;;;;;2.80;1.85;;;6.40;99.90;;;;;;5018089;28;20384;-69
2024/01/02 06:25:08;;;;;;;2.70;1.88;;;6.40;99.90;;;;;;4995298;28;20042;-69
2024/01/02 06:27:34;;;;;;;2.35;1.60;;;6.40;99.90;;;;;;4997403;28;20100;-69
2024/01/02 06:30:00;;;;;;;3.40;1.60;;;6.40;99.90;;;;;;5002670;28;20073;-69
2024/01/02 06:32:26;;;;;;;4.13;1.38;;;6.40;99.90;;;;;;5001216;28;20069;-69
2024/01/02 06:34:51;;;;;;;1.75;1.30;;;6.40;99.90;;;;;;5028283;28;20129;-69
2024/01/02 06:37:17;;;;;;;2.13;1.70;;;6.50;99.90;;;;;;4990503;28;20054;-69
2024/01/02 06:39:43;;;;;;;1.95;1.40;;;6.50;99.90;;;;;;4982395;28;20100;-69
2024/01/02 06:42:09;;;;;;;2.78;1.52;;;6.40;99.90;;;;;;4986085;28;20034;-69
2024/01/02 06:44:35;;;;;;;2.83;1.70;;;6.40;99.90;;;;;;5003027;28;20037;-69
2024/01/02 06:47:00;;;;;;;2.05;1.60;;;6.50;99.90;;;;;;4982782;28;20120;-69
2024/01/02 06:49:26;;;;;;;1.95;1.67;;;6.50;99.90;;;;;;4996084;28;20042;-69
2024/01/02 06:51:52;;;;;;;4.15;1.70;;;6.40;99.90;;;;;;4998738;28;20053;-69
2024/01/02 06:54:18;;;;;;;4.47;1.80;;;6.40;99.90;;;;;;4984626;28;20045;-69
2024/01/02 06:56:43;;;;;;;2.50;1.42;;;6.50;99.90;;;;;;4998537;28;20052;-69
2024/01/02 06:59:09;;;;;;;2.28;1.50;;;6.50;99.90;;;;;;4996137;28;20485;-68
2024/01/02 07:01:36;;;;;;;2.70;1.50;;;6.50;99.90;;;;;;4994866;28;20034;-69
2024/01/02 07:04:02;;;;;;;1.92;1.30;;;6.50;99.90;;;;;;4978368;28;20042;-69
2024/01/02 07:06:28;;;;;;;2.08;1.27;;;6.50;99.90;;;;;;4984810;28;20030;-68
2024/01/02 07:08:53;;;;;;;1.20;1.10;;;6.50;99.90;;;;;;4998581;28;20041;-69
2024/01/02 07:11:19;;;;;;;3.28;1.30;;;6.60;99.90;;;;;;4985656;28;20584;-69
2024/01/02 07:13:45;;;;;;;2.13;1.45;;;6.60;99.90;;;;;;4994060;28;20081;-69
2024/01/02 07:16:10;;;;;;;2.20;1.50;;;6.60;99.90;;;;;;4996961;28;20087;-68
2024/01/02 07:18:37;;;;;;;1.60;1.50;;;6.60;99.90;;;;;;4991459;28;20581;-69
2024/01/02 07:21:03;;;;;;;1.70;1.60;;;6.60;99.90;;;;;;4983259;28;20045;-69
2024/01/02 07:23:29;;;;;;;1.92;1.73;;;6.70;99.90;;;;;;4998298;28;20121;-69
2024/01/02 07:25:55;;;;;;;1.77;1.67;;;6.70;99.90;;;;;;4990577;28;20288;-68
2024/01/02 07:28:20;;;;;;;3.70;1.92;;;6.70;99.90;;;;;;5000500;28;20422;-69
2024/01/02 07:30:48;;;;;;;2.38;1.73;;;6.70;99.90;;;;;;4981473;28;20072;-68
2024/01/02 07:33:14;;;;;;;2.63;2.10;;;6.80;99.90;;;;;;4998412;28;20555;-68
2024/01/02 07:35:40;;;;;;;1.98;1.80;;;6.80;99.90;;;;;;4978588;28;20454;-68
2024/01/02 07:38:06;;;;;;;2.35;2.00;;;6.80;99.90;;;;;;4995126;28;20056;-68
2024/01/02 07:40:32;;;;;;;2.35;2.00;;;6.80;99.90;;;;;;5000584;28;20676;-68
2024/01/02 07:42:58;;;;;;;2.33;1.95;;;6.80;99.90;;;;;;4991137;28;20073;-69
2024/01/02 07:45:24;;;;;;;3.47;2.00;;;6.90;99.90;;;;;;4983590;28;20485;-69
2024/01/02 07:47:49;;;;;;;3.28;2.38;;;6.90;99.90;;;;;;4982200;28;20037;-68
2024/01/02 07:50:15;;;;;;;3.75;2.80;;;6.90;99.90;;;;;;5001628;28;20485;-69
2024/01/02 07:52:41;;;;;;;3.15;2.85;;;6.90;99.90;;;;;;4990874;28;20042;-68
2024/01/02 07:55:10;;;;;;;3.05;2.70;;;6.90;99.90;;;;;;5005923;28;20048;-69
2024/01/02 07:57:37;;;;;;;3.40;2.97;;;6.90;99.90;;;;;;5004860;28;20571;-68
2024/01/02 08:00:03;;;;;;;3.88;2.65;;;7.00;99.90;;;;;;5005283;28;20041;-69
2024/01/02 08:02:29;;;;;;;3.00;2.65;;;7.00;99.90;;;;;;5000129;28;20057;-68
2024/01/02 08:04:55;;;;;;;2.80;2.60;;;7.10;99.90;;;;;;5015510;28;20041;-68
2024/01/02 08:07:21;;;;;;;2.75;2.38;;;7.10;99.90;;;;;;5009922;28;20497;-69
2024/01/02 08:09:46;;;;;;;2.85;2.22;;;7.20;99.90;;;;;;5004416;28;20050;-68
2024/01/02 08:12:13;;;;;;;3.45;2.45;;;7.30;99.90;;;;;;5026588;28;20049;-69
2024/01/02 08:14:38;;;;;;;2.78;2.30;;;7.30;99.90;;;;;;5001254;28;20522;-69
2024/01/02 08:17:04;;;;;;;3.70;2.67;;;7.30;99.90;;;;;;4998927;28;20038;-69
2024/01/02 08:19:30;;;;;;;3.15;2.65;;;7.30;99.90;;;;;;4987016;28;20054;-69
2024/01/02 08:21:56;;;;;;;4.65;2.80;;;7.40;99.90;;;;;;4999500;28;20489;-69
2024/01/02 08:24:22;;;;;;;4.20;3.00;;;7.50;99.90;;;;;;4996540;28;20073;-69
2024/01/02 08:26:47;;;;;;;6.68;3.00;;;7.70;99.90;;;;;;5013195;28;20042;-69
2024/01/02 08:29:13;;;;;;;4.10;3.35;;;7.70;99.90;;;;;;5019561;28;20041;-69
2024/01/02 08:31:39;;;;;;;7.18;3.70;;;7.90;99.90;;;;;;4994459;28;20161;-69
2024/01/02 08:34:05;;;;;;;6.05;3.63;;;8.00;99.90;;;;;;5005059;28;20046;-69
2024/01/02 08:36:31;;;;;;;9.73;4.00;;;8.10;99.90;;;;;;4998650;28;20080;-69
2024/01/02 08:38:57;;;;;;;6.78;4.10;;;8.20;99.90;;;;;;5001728;28;20052;-68
2024/01/02 08:41:23;;;;;;;8.13;3.83;;;8.30;99.90;;;;;;5001983;28;20042;-69
2024/01/02 08:43:48;;;;;;;11.77;4.18;;;8.50;99.90;;;;;;5006525;28;20053;-69
2024/01/02 08:46:14;;;;;;;15.30;5.30;;;8.60;99.90;;;;;;4999250;28;20050;-69
2024/01/02 08:48:40;;;;;;;7.72;4.15;;;8.80;99.90;;;;;;5002158;28;20025;-69
2024/01/02 08:51:06;;;;;;;21.52;4.68;;;9.00;99.90;;;;;;4990231;28;20053;-69
2024/01/02 08:53:32;;;;;;;16.75;4.43;;;9.10;99.90;;;;;;4999375;28;20503;-69
2024/01/02 08:55:58;;;;;;;15.43;4.50;;;9.30;99.90;;;;;;4995725;28;20516;-69
2024/01/02 08:58:24;;;;;;;15.93;4.40;;;9.40;99.90;;;;;;5003650;28;20034;-69
2024/01/02 09:00:50;;;;;;;12.77;3.80;;;9.40;99.90;;;;;;4995657;28;20049;-69
2024/01/02 09:03:16;;;;;;;13.90;3.53;;;9.50;99.90;;;;;;5002648;28;20052;-69
2024/01/02 09:05:42;;;;;;;11.57;3.33;;;9.50;99.90;;;;;;5006765;28;20034;-69
2024/01/02 09:08:08;;;;;;;15.65;4.00;;;9.70;99.90;;;;;;5005963;28;20103;-69
2024/01/02 09:10:34;;;;;;;16.63;3.60;;;9.70;99.90;;;;;;4997792;28;20033;-69
2024/01/02 09:12:59;;;;;;;12.25;3.13;;;9.70;99.90;;;;;;5000661;28;20492;-69
2024/01/02 09:15:25;;;;;;;19.33;3.50;;;9.80;99.90;;;;;;5000210;28;20046;-69
2024/01/02 09:17:51;;;;;;;17.77;3.10;;;9.90;99.90;;;;;;5022306;28;20259;-69
2024/01/02 09:20:17;;;;;;;13.50;2.70;;;9.90;99.90;;;;;;4989125;28;20147;-69
2024/01/02 09:22:42;;;;;;;18.42;3.10;;;9.90;99.90;;;;;;5004371;28;20416;-69
2024/01/02 09:25:11;;;;;;;14.93;3.00;;;9.90;99.90;;;;;;4996786;28;20129;-69
2024/01/02 09:27:39;;;;;;;18.45;3.33;;;10.00;99.90;;;;;;5011849;28;20113;-69
2024/01/02 09:30:06;;;;;;;13.27;3.42;;;10.10;99.90;;;;;;4997597;28;20073;-69
2024/01/02 09:32:32;;;;;;;19.77;3.03;;;10.10;99.90;;;;;;4993874;28;20046;-69
2024/01/02 09:34:58;;;;;;;19.75;3.20;;;10.20;99.90;;;;;;4998333;28;20060;-69
2024/01/02 09:37:24;;;;;;;15.15;3.13;;;10.30;99.90;;;;;;4998748;28;20065;-69
2024/01/02 09:39:51;;;;;;;21.15;3.45;;;10.30;99.90;;;;;;5000555;28;20057;-69
2024/01/02 09:42:33;;;;;;;12.55;2.50;;;10.30;99.90;;;;;;5005589;28;20076;-69
2024/01/02 09:45:20;;;;;;;13.35;2.70;;;10.30;99.90;;;;;;4983173;28;20054;-69
2024/01/02 09:48:25;;;;;;;11.70;2.22;;;10.30;99.90;;;;;;5001203;28;20108;-69
2024/01/02 09:51:05;;;;;;;13.85;2.67;;;10.30;99.90;;;;;;4985267;28;20054;-69
2024/01/02 09:54:02;;;;;;;16.60;4.35;;;10.50;99.90;;;;;;5001402;28;20084;-69
2024/01/02 09:56:35;;;;;;;18.85;3.05;;;10.40;99.90;;;;;;4984889;28;20046;-69
2024/01/02 09:59:22;;;;;;;17.90;3.28;;;10.40;99.90;;;;;;4992446;28;20111;-69
2024/01/02 10:01:56;;;;;;;11.65;3.80;;;10.50;99.90;;;;;;4988506;28;20037;-69
2024/01/02 10:04:34;;;;;;;18.83;5.32;;;10.60;99.90;;;;;;4987854;28;20085;-69
2024/01/02 10:07:18;;;;;;;24.08;6.13;;;10.60;99.90;;;;;;4985983;28;20054;-69
2024/01/02 10:09:50;;;;;;;21.10;6.80;;;10.60;99.90;;;;;;4997767;28;20048;-69
2024/01/02 10:12:42;;;;;;;26.17;8.15;;;10.60;99.90;;;;;;4999698;28;20045;-69
2024/01/02 10:15:14;;;;;;;33.67;9.07;;;10.70;99.90;;;;;;4997568;28;20540;-69
2024/01/02 10:18:13;;;;;;;39.25;12.20;;;10.70;99.90;;;;;;4990577;28;20331;-69
2024/01/02 10:20:38;;;;;;;36.70;11.07;;;10.70;99.90;;;;;;4989413;28;20046;-69
2024/01/02 10:23:10;;;;;;;34.45;11.38;;;10.70;99.90;;;;;;5003036;28;20508;-69
2024/01/02 10:25:37;;;;;;;28.35;10.90;;;10.70;99.90;;;;;;5022332;28;20733;-69
2024/01/02 10:28:26;;;;;;;33.00;10.50;;;10.70;99.90;;;;;;5004687;28;20162;-69
2024/01/02 10:30:56;;;;;;;25.35;9.70;;;10.70;99.90;;;;;;5040184;28;20053;-70
2024/01/02 10:33:40;;;;;;;23.85;9.02;;;10.80;99.90;;;;;;5007125;28;20079;-69
2024/01/02 10:36:11;;;;;;;31.07;7.90;;;10.80;99.90;;;;;;4991803;28;20567;-69
2024/01/02 10:39:05;;;;;;;29.27;6.72;;;10.90;99.90;;;;;;4992157;28;20353;-69
2024/01/02 10:41:37;;;;;;;20.80;6.53;;;10.90;99.90;;;;;;4989057;28;20034;-69
2024/01/02 10:44:15;;;;;;;26.42;6.47;;;10.80;99.90;;;;;;4997902;28;20064;-69
2024/01/02 10:46:55;;;;;;;26.40;5.88;;;10.80;99.90;;;;;;5016249;28;20042;-69
2024/01/02 10:49:33;;;;;;;21.25;5.45;;;10.80;99.90;;;;;;4978060;28;20100;-69
2024/01/02 10:52:04;;;;;;;20.85;5.70;;;10.90;99.90;;;;;;5000130;28;20996;-70
2024/01/02 10:54:54;;;;;;;21.30;5.93;;;10.90;99.90;;;;;;4989133;28;20093;-69
2024/01/02 10:57:43;;;;;;;28.42;4.85;;;10.90;99.90;;;;;;4989475;28;20046;-69
2024/01/02 11:00:21;;;;;;;23.83;4.47;;;11.00;99.90;;;;;;5011751;28;20099;-69
2024/01/02 11:02:53;;;;;;;24.58;3.72;;;11.00;99.90;;;;;;4975042;28;20138;-70
2024/01/02 11:05:37;;;;;;;17.58;4.10;;;11.10;99.90;;;;;;5028528;28;20049;-69
2024/01/02 11:08:17;;;;;;;21.38;3.63;;;11.10;99.90;;;;;;4996553;28;20033;-69
2024/01/02 11:10:53;;;;;;;15.43;3.95;;;11.10;99.90;;;;;;5003417;28;20042;-69
2024/01/02 11:13:19;;;;;;;16.85;3.85;;;11.00;99.90;;;;;;4988773;28;20050;-69
2024/01/02 11:15:47;;;;;;;13.00;3.63;;;11.10;99.90;;;;;;4984068;28;20050;-69
2024/01/02 11:18:17;;;;;;;15.05;3.42;;;11.20;99.90;;;;;;4981039;28;20481;-69
2024/01/02 11:20:55;;;;;;;20.95;3.75;;;11.20;99.90;;;;;;4978310;28;20049;-69
2024/01/02 11:23:26;;;;;;;21.85;4.05;;;11.30;99.90;;;;;;5000997;28;20157;-70
2024/01/02 11:26:01;;;;;;;19.20;3.40;;;11.30;99.90;;;;;;5016338;28;20053;-69
2024/01/02 11:28:28;;;;;;;18.48;4.45;;;11.30;99.90;;;;;;4999992;28;20057;-70
2024/01/02 11:30:55;;;;;;;19.23;3.83;;;11.40;99.90;;;;;;5015270;28;20049;-69
2024/01/02 11:33:20;;;;;;;14.43;3.40;;;11.50;99.90;;;;;;5008748;28;20046;-70
2024/01/02 11:36:24;;;;;;;18.15;3.60;;;11.40;99.90;;;;;;4994755;28;20367;-69
2024/01/02 11:39:03;;;;;;;14.68;3.20;;;11.40;99.90;;;;;;4994616;28;20557;-69
2024/01/02 11:41:46;;;;;;;19.00;3.90;;;11.30;99.90;;;;;;4999086;28;20111;-69
2024/01/02 11:44:30;;;;;;;17.30;3.33;;;11.30;99.90;;;;;;4996131;28;20528;-70
2024/01/02 11:47:04;;;;;;;18.23;3.92;;;11.30;99.90;;;;;;4993854;28;20065;-70
2024/01/02 11:49:32;;;;;;;19.17;3.13;;;11.20;99.90;;;;;;4984111;28;20049;-70
2024/01/02 11:52:16;;;;;;;19.13;3.67;;;11.20;99.90;;;;;;4996089;28;20046;-69
2024/01/02 11:55:03;;;;;;;21.17;3.40;;;11.20;99.90;;;;;;4999619;28;20104;-69
2024/01/02 11:57:50;;;;;;;17.33;3.13;;;11.10;99.90;;;;;;4997507;28;20046;-69
2024/01/02 12:00:42;;;;;;;19.70;3.47;;;11.10;99.90;;;;;;4992877;28;20046;-69
2024/01/02 12:03:26;;;;;;;19.23;3.63;;;11.10;99.90;;;;;;5023336;28;20049;-69
2024/01/02 12:06:03;;;;;;;15.95;2.90;;;11.10;99.90;;;;;;5001438;28;20042;-70
2024/01/02 12:08:31;;;;;;;19.48;3.88;;;11.10;99.90;;;;;;4982785;28;20037;-69
2024/01/02 12:11:04;;;;;;;12.10;3.80;;;11.10;99.90;;;;;;4984994;28;20582;-69
2024/01/02 12:13:58;;;;;;;19.25;3.47;;;11.10;99.90;;;;;;4996098;28;20133;-70
2024/01/02 12:16:27;;;;;;;20.40;4.25;;;11.00;99.90;;;;;;4994040;28;20038;-70
2024/01/02 12:18:56;;;;;;;24.98;4.15;;;11.00;99.90;;;;;;4991187;28;20049;-70
2024/01/02 12:21:25;;;;;;;20.02;3.90;;;11.00;99.90;;;;;;4982753;28;20049;-69
2024/01/02 12:23:51;;;;;;;25.95;4.07;;;11.00;99.90;;;;;;4987406;28;20099;-69
2024/01/02 12:26:23;;;;;;;23.10;4.18;;;10.90;99.90;;;;;;4990793;28;20453;-69
2024/01/02 12:28:50;;;;;;;16.63;3.53;;;10.90;99.90;;;;;;5023425;28;20042;-69
2024/01/02 12:31:41;;;;;;;14.93;3.60;;;10.90;99.90;;;;;;4998866;28;20042;-70
2024/01/02 12:34:15;;;;;;;17.80;3.97;;;10.90;99.90;;;;;;4996881;28;20054;-69
2024/01/02 12:36:54;;;;;;;22.25;3.97;;;10.90;99.90;;;;;;4994663;28;20054;-69
2024/01/02 12:39:21;;;;;;;14.45;3.80;;;10.80;99.90;;;;;;4999938;28;20053;-70
2024/01/02 12:41:52;;;;;;;17.92;3.85;;;10.90;99.90;;;;;;5000885;28;20042;-69
2024/01/02 12:44:19;;;;;;;20.38;4.15;;;10.80;99.90;;;;;;4980713;28;20065;-69
2024/01/02 12:47:06;;;;;;;20.25;4.10;;;10.80;99.90;;;;;;4992009;28;20410;-70
2024/01/02 12:49:40;;;;;;;17.77;4.43;;;10.70;99.90;;;;;;4994096;28;20526;-69
2024/01/02 12:52:12;;;;;;;19.58;4.05;;;10.80;99.90;;;;;;4974769;28;20452;-70
2024/01/02 12:54:43;;;;;;;19.75;5.25;;;10.70;99.90;;;;;;4989034;28;20354;-69